Time;durP1;ratioP1;P1;durP2;ratioP2;P2;SDS_P1;SDS_P2;PMS_P1;PMS_P2;Temp;Humidity;BMP_temperature;BMP_pressure;BME280_temperature;BME280_humidity;BME280_pressure;Samples;Min_cycle;Max_cycle;Signal;HPM_P1;HPM_P2
2022/11/04 00:01:50;;;;;;;14.60;8.27;;;;;;;;;;5053438;28;20033;-68
2022/11/04 00:04:18;;;;;;;13.10;6.38;;;;;;;;;;5053170;28;20087;-68
2022/11/04 00:06:43;;;;;;;11.98;6.95;;;;;;;;;;5052628;28;20025;-68
2022/11/04 00:09:12;;;;;;;15.98;7.53;;;;;;;;;;5052978;28;20502;-67
2022/11/04 00:14:21;;;;;;;12.65;6.22;;;;;;;;;;5050525;28;20480;-68
2022/11/04 00:30:27;;;;;;;19.45;8.13;;;;;;;;;;5052154;28;20577;-67
2022/11/04 00:35:37;;;;;;;19.83;9.05;;;;;;;;;;5054063;28;20091;-75
2022/11/04 00:38:02;;;;;;;18.67;9.02;;;;;;;;;;5051970;28;20486;-68
2022/11/04 00:40:28;;;;;;;15.52;8.60;;;;;;;;;;5050414;28;20108;-67
2022/11/04 00:42:53;;;;;;;21.20;8.85;;;;;;;;;;5052373;28;20025;-67
2022/11/04 00:45:18;;;;;;;17.50;8.82;;;;;;;;;;5051107;28;20028;-68
2022/11/04 00:47:44;;;;;;;17.35;8.90;;;;;;;;;;5052533;28;20084;-68
2022/11/04 00:50:09;;;;;;;13.68;8.07;;;;;;;;;;5052183;28;20017;-67
2022/11/04 00:52:35;;;;;;;16.88;8.90;;;;;;;;;;5052081;28;20025;-68
2022/11/04 00:55:00;;;;;;;20.00;9.40;;;;;;;;;;5051840;28;20096;-68
2022/11/04 00:57:26;;;;;;;16.25;8.88;;;;;;;;;;5052456;28;20025;-68
2022/11/04 00:59:51;;;;;;;13.55;7.50;;;;;;;;;;5052455;28;20036;-68
2022/11/04 01:02:17;;;;;;;15.48;7.93;;;;;;;;;;5052124;28;20111;-67
2022/11/04 01:04:42;;;;;;;18.42;7.28;;;;;;;;;;5052049;28;20040;-68
2022/11/04 01:07:07;;;;;;;18.73;9.20;;;;;;;;;;5052840;28;20023;-67
2022/11/04 01:09:33;;;;;;;15.90;7.38;;;;;;;;;;5052772;28;20450;-67
2022/11/04 01:11:58;;;;;;;18.73;8.38;;;;;;;;;;5051697;28;20124;-68
2022/11/04 01:14:24;;;;;;;15.52;8.00;;;;;;;;;;5052986;28;20074;-67
2022/11/04 01:16:49;;;;;;;17.20;9.00;;;;;;;;;;5052739;28;20049;-71
2022/11/04 01:19:16;;;;;;;18.15;8.57;;;;;;;;;;5052938;28;20035;-67
2022/11/04 01:21:41;;;;;;;17.30;8.30;;;;;;;;;;5052810;28;20036;-68
2022/11/04 01:24:07;;;;;;;13.55;7.85;;;;;;;;;;5052466;28;20071;-67
2022/11/04 01:29:07;;;;;;;17.15;9.25;;;;;;;;;;5163147;23;20058;-71
2022/11/04 01:31:33;;;;;;;18.13;9.05;;;;;;;;;;4991851;28;20030;-67
2022/11/04 01:33:59;;;;;;;19.75;9.75;;;;;;;;;;4992123;28;20382;-68
2022/11/04 01:36:25;;;;;;;17.02;9.48;;;;;;;;;;4991952;28;20482;-68
2022/11/04 01:38:51;;;;;;;19.83;8.57;;;;;;;;;;4992123;28;20080;-67
2022/11/04 01:41:23;;;;;;;14.90;6.88;;;;;;;;;;4992100;28;20031;-67
2022/11/04 01:43:50;;;;;;;20.70;8.95;;;;;;;;;;4992048;28;20098;-66
2022/11/04 01:46:42;;;;;;;16.98;8.63;;;;;;;;;;4990331;28;20037;-67
2022/11/04 01:49:40;;;;;;;23.02;9.38;;;;;;;;;;4992180;28;20022;-70
2022/11/04 01:52:15;;;;;;;20.83;9.65;;;;;;;;;;4991202;28;20383;-73
2022/11/04 01:54:43;;;;;;;22.83;10.65;;;;;;;;;;4992063;28;20092;-73
2022/11/04 01:57:13;;;;;;;23.38;9.25;;;;;;;;;;4991701;28;20137;-72
2022/11/04 01:59:40;;;;;;;18.15;9.65;;;;;;;;;;4992048;28;20054;-76
2022/11/04 02:02:06;;;;;;;24.63;10.10;;;;;;;;;;4991890;28;20475;-77
2022/11/04 02:04:32;;;;;;;19.88;10.40;;;;;;;;;;4992146;28;20058;-77
2022/11/04 02:07:06;;;;;;;22.35;10.80;;;;;;;;;;4991917;28;20027;-76
2022/11/04 02:09:34;;;;;;;23.38;10.48;;;;;;;;;;4991786;28;20023;-76
2022/11/04 02:14:46;;;;;;;20.65;9.43;;;;;;;;;;4996036;28;20037;-74
2022/11/04 02:17:17;;;;;;;17.92;9.80;;;;;;;;;;4995661;28;20110;-74
2022/11/04 02:20:07;;;;;;;19.67;9.80;;;;;;;;;;4995718;28;20048;-78
2022/11/04 02:22:54;;;;;;;18.10;9.83;;;;;;;;;;4995538;28;20038;-77
2022/11/04 02:25:57;;;;;;;20.45;9.88;;;;;;;;;;4995291;28;20073;-76
2022/11/04 02:28:38;;;;;;;20.95;10.50;;;;;;;;;;4953739;29;20054;-76
2022/11/04 02:31:19;;;;;;;17.95;9.55;;;;;;;;;;4954181;29;20071;-77
2022/11/04 02:34:07;;;;;;;19.60;10.07;;;;;;;;;;4953954;29;20507;-77
2022/11/04 02:36:57;;;;;;;19.35;10.85;;;;;;;;;;4954197;29;20035;-76
2022/11/04 02:39:31;;;;;;;16.65;9.60;;;;;;;;;;4954068;29;20047;-77
2022/11/04 02:42:23;;;;;;;22.75;9.82;;;;;;;;;;4953695;29;20130;-74
2022/11/04 02:45:10;;;;;;;20.48;10.45;;;;;;;;;;4953979;29;20489;-78
2022/11/04 02:47:38;;;;;;;20.23;9.95;;;;;;;;;;4953961;29;20161;-75
2022/11/04 02:50:10;;;;;;;20.80;9.88;;;;;;;;;;4953999;29;20031;-76
2022/11/04 02:52:59;;;;;;;20.20;10.18;;;;;;;;;;4953921;29;20148;-76
2022/11/04 02:55:29;;;;;;;21.95;10.82;;;;;;;;;;4915447;29;20094;-73
2022/11/04 02:57:58;;;;;;;25.08;11.05;;;;;;;;;;4915309;29;20075;-75
2022/11/04 03:00:24;;;;;;;19.45;10.88;;;;;;;;;;4915538;29;20040;-72
2022/11/04 03:02:58;;;;;;;25.92;11.73;;;;;;;;;;4910488;29;20029;-75
2022/11/04 03:05:32;;;;;;;21.58;11.88;;;;;;;;;;4910886;29;20122;-68
2022/11/04 03:08:04;;;;;;;25.75;12.98;;;;;;;;;;4934236;29;20128;-75
2022/11/04 03:10:36;;;;;;;23.83;12.57;;;;;;;;;;4934123;29;20035;-76
2022/11/04 03:13:10;;;;;;;21.67;12.20;;;;;;;;;;4934277;29;20040;-76
2022/11/04 03:15:39;;;;;;;27.92;13.05;;;;;;;;;;4934468;29;20032;-76
2022/11/04 03:18:32;;;;;;;22.42;11.95;;;;;;;;;;4934133;29;20036;-75
2022/11/04 03:21:00;;;;;;;26.58;11.77;;;;;;;;;;4934162;29;20032;-78
2022/11/04 03:23:26;;;;;;;20.77;12.15;;;;;;;;;;4932877;29;20492;-77
2022/11/04 03:25:57;;;;;;;23.85;11.95;;;;;;;;;;4933974;29;20044;-77
2022/11/04 03:28:58;;;;;;;30.55;13.55;;;;;;;;;;4933871;29;20517;-78
2022/11/04 03:31:37;;;;;;;21.75;12.75;;;;;;;;;;4917213;28;20056;-77
2022/11/04 03:34:02;;;;;;;24.85;11.43;;;;;;;;;;4972246;28;20039;-75
2022/11/04 03:36:29;;;;;;;29.73;11.90;;;;;;;;;;4972273;28;20033;-77
2022/11/04 03:38:54;;;;;;;22.90;12.18;;;;;;;;;;4972120;28;20073;-77
2022/11/04 03:41:37;;;;;;;24.50;11.93;;;;;;;;;;4972163;28;20572;-76
2022/11/04 03:44:03;;;;;;;25.00;11.50;;;;;;;;;;4972391;28;20553;-76
2022/11/04 03:46:29;;;;;;;22.52;11.43;;;;;;;;;;4972117;28;20125;-75
2022/11/04 03:48:54;;;;;;;25.23;12.15;;;;;;;;;;4971961;28;20035;-76
2022/11/04 03:51:20;;;;;;;26.17;12.43;;;;;;;;;;4972144;28;20509;-76
2022/11/04 03:53:46;;;;;;;23.30;12.48;;;;;;;;;;4971633;28;20066;-75
2022/11/04 03:56:11;;;;;;;25.10;12.02;;;;;;;;;;4972026;28;20066;-76
2022/11/04 03:59:05;;;;;;;24.48;11.73;;;;;;;;;;4971872;28;20031;-75
2022/11/04 04:01:54;;;;;;;21.20;11.70;;;;;;;;;;4971967;28;20046;-72
2022/11/04 04:04:33;;;;;;;28.13;12.93;;;;;;;;;;4971939;28;20529;-75
2022/11/04 04:07:13;;;;;;;22.45;11.88;;;;;;;;;;4982299;28;20038;-73
2022/11/04 04:09:52;;;;;;;23.65;11.13;;;;;;;;;;4993495;28;20030;-74
2022/11/04 04:12:37;;;;;;;25.20;11.52;;;;;;;;;;4993475;28;20084;-75
2022/11/04 04:15:25;;;;;;;24.73;11.60;;;;;;;;;;4993487;28;20037;-76
2022/11/04 04:18:00;;;;;;;19.85;11.32;;;;;;;;;;4993185;28;20093;-78
2022/11/04 04:20:29;;;;;;;24.50;11.90;;;;;;;;;;4993366;28;20062;-77
2022/11/04 04:22:59;;;;;;;27.35;12.65;;;;;;;;;;4992920;28;20054;-77
2022/11/04 04:28:15;;;;;;;32.88;13.73;;;;;;;;;;4992902;28;20057;-73
2022/11/04 04:30:42;;;;;;;33.92;14.18;;;;;;;;;;4992730;28;20030;-73
2022/11/04 04:33:12;;;;;;;29.52;14.60;;;;;;;;;;4992894;28;20110;-76
2022/11/04 04:35:48;;;;;;;28.30;13.75;;;;;;;;;;4992772;28;20437;-68
2022/11/04 04:46:43;;;;;;;26.20;13.38;;;;;;;;;;4992789;28;20025;-75
2022/11/04 04:49:09;;;;;;;31.48;13.73;;;;;;;;;;4992734;28;20034;-76
2022/11/04 04:51:39;;;;;;;30.00;13.85;;;;;;;;;;4992608;28;20041;-77
2022/11/04 04:54:04;;;;;;;32.40;13.73;;;;;;;;;;4992652;28;20026;-77
2022/11/04 04:56:30;;;;;;;27.08;14.82;;;;;;;;;;4992700;28;20041;-75
2022/11/04 04:58:55;;;;;;;25.00;13.43;;;;;;;;;;4992579;28;20113;-75
2022/11/04 05:01:21;;;;;;;30.98;14.05;;;;;;;;;;4992574;28;20034;-75
2022/11/04 05:03:46;;;;;;;29.27;14.18;;;;;;;;;;4992394;28;20030;-74
2022/11/04 05:06:12;;;;;;;27.27;13.52;;;;;;;;;;4992230;28;20022;-76
2022/11/04 05:08:37;;;;;;;28.55;13.57;;;;;;;;;;4992460;28;20497;-73
2022/11/04 05:11:02;;;;;;;27.95;13.38;;;;;;;;;;4992408;28;20085;-77
2022/11/04 05:13:29;;;;;;;22.45;13.20;;;;;;;;;;4992379;28;20022;-74
2022/11/04 05:15:56;;;;;;;27.98;13.95;;;;;;;;;;4992239;28;20088;-69
2022/11/04 05:18:22;;;;;;;30.90;14.75;;;;;;;;;;4992298;28;20033;-75
2022/11/04 05:20:47;;;;;;;31.27;15.63;;;;;;;;;;4992112;28;20610;-75
2022/11/04 05:23:13;;;;;;;30.65;15.85;;;;;;;;;;4992229;28;20058;-74
2022/11/04 05:25:40;;;;;;;33.03;14.63;;;;;;;;;;4992331;28;20475;-73
2022/11/04 05:28:06;;;;;;;29.58;14.13;;;;;;;;;;4992067;28;20092;-72
2022/11/04 05:30:34;;;;;;;28.92;15.00;;;;;;;;;;4991883;28;20038;-73
2022/11/04 05:32:59;;;;;;;26.45;15.50;;;;;;;;;;4992122;28;20387;-75
2022/11/04 05:35:25;;;;;;;29.95;15.65;;;;;;;;;;4991926;28;20029;-75
2022/11/04 05:37:50;;;;;;;27.25;14.80;;;;;;;;;;4992057;28;20387;-76
2022/11/04 05:40:16;;;;;;;28.23;14.43;;;;;;;;;;4992151;28;20034;-76
2022/11/04 05:42:42;;;;;;;30.60;13.30;;;;;;;;;;4991873;28;20038;-74
2022/11/04 05:45:08;;;;;;;25.35;14.00;;;;;;;;;;4992041;28;20537;-76
2022/11/04 05:47:34;;;;;;;32.72;15.90;;;;;;;;;;4995488;28;20105;-76
2022/11/04 05:49:59;;;;;;;30.20;15.80;;;;;;;;;;4995621;28;20380;-76
2022/11/04 05:52:25;;;;;;;34.20;15.93;;;;;;;;;;4995957;28;20034;-74
2022/11/04 05:54:50;;;;;;;38.03;16.83;;;;;;;;;;4996011;28;20379;-76
2022/11/04 05:57:16;;;;;;;40.78;17.00;;;;;;;;;;4995845;28;20027;-74
2022/11/04 05:59:41;;;;;;;23.80;10.18;;;;;;;;;;4995593;28;20026;-72
2022/11/04 06:02:07;;;;;;;31.75;14.02;;;;;;;;;;4995764;28;20034;-74
2022/11/04 06:04:32;;;;;;;25.70;13.00;;;;;;;;;;4995441;28;20070;-73
2022/11/04 06:06:58;;;;;;;29.67;14.73;;;;;;;;;;4995615;28;20037;-74
2022/11/04 06:09:37;;;;;;;27.20;15.38;;;;;;;;;;4995483;28;20512;-75
2022/11/04 06:12:13;;;;;;;26.80;13.27;;;;;;;;;;4995469;28;20759;-76
2022/11/04 06:14:42;;;;;;;24.63;13.23;;;;;;;;;;4994302;28;20034;-75
2022/11/04 06:17:16;;;;;;;26.45;13.48;;;;;;;;;;4995204;28;20030;-73
2022/11/04 06:19:41;;;;;;;29.23;14.00;;;;;;;;;;4995318;28;20022;-74
2022/11/04 06:22:10;;;;;;;27.45;12.32;;;;;;;;;;4995155;28;20479;-70
2022/11/04 06:24:35;;;;;;;26.88;14.18;;;;;;;;;;4995414;28;20030;-75
2022/11/04 06:27:01;;;;;;;22.90;12.82;;;;;;;;;;4995261;28;20073;-70
2022/11/04 06:29:26;;;;;;;28.15;14.27;;;;;;;;;;4994762;28;20047;-73
2022/11/04 06:31:52;;;;;;;24.38;12.20;;;;;;;;;;4994760;28;20045;-72
2022/11/04 06:34:17;;;;;;;23.35;12.95;;;;;;;;;;4995086;28;20034;-76
2022/11/04 06:36:43;;;;;;;23.55;13.05;;;;;;;;;;4995054;28;20030;-76
2022/11/04 06:39:08;;;;;;;24.45;11.25;;;;;;;;;;4995225;28;20030;-77
2022/11/04 06:41:34;;;;;;;29.23;13.68;;;;;;;;;;4994998;28;20023;-76
2022/11/04 06:43:59;;;;;;;23.38;12.45;;;;;;;;;;4994731;28;20038;-76
2022/11/04 06:46:28;;;;;;;27.50;13.27;;;;;;;;;;4994617;28;20472;-75
2022/11/04 06:48:55;;;;;;;24.65;13.13;;;;;;;;;;4994945;28;20427;-76
2022/11/04 06:51:21;;;;;;;27.13;13.68;;;;;;;;;;4994935;28;20052;-76
2022/11/04 06:53:46;;;;;;;27.40;12.98;;;;;;;;;;4994416;28;20109;-75
2022/11/04 06:56:12;;;;;;;22.48;10.85;;;;;;;;;;4994814;28;20022;-72
2022/11/04 06:58:37;;;;;;;24.83;13.27;;;;;;;;;;4994527;28;20081;-76
2022/11/04 07:01:03;;;;;;;28.73;13.77;;;;;;;;;;4994437;28;20591;-76
2022/11/04 07:03:28;;;;;;;27.35;12.90;;;;;;;;;;4994599;28;20038;-75
2022/11/04 07:05:54;;;;;;;23.58;12.15;;;;;;;;;;4994427;28;20080;-76
2022/11/04 07:08:20;;;;;;;26.80;13.77;;;;;;;;;;4994551;28;20052;-74
2022/11/04 07:10:46;;;;;;;21.15;11.88;;;;;;;;;;4994456;28;20498;-76
2022/11/04 07:13:11;;;;;;;27.05;13.18;;;;;;;;;;4994383;28;20092;-77
2022/11/04 07:15:40;;;;;;;30.08;14.20;;;;;;;;;;4994122;28;20023;-77
2022/11/04 07:18:08;;;;;;;25.67;13.10;;;;;;;;;;4994209;28;20495;-77
2022/11/04 07:20:35;;;;;;;27.65;13.48;;;;;;;;;;4994332;28;20073;-74
2022/11/04 07:23:01;;;;;;;27.58;14.95;;;;;;;;;;4994265;28;20105;-74
2022/11/04 07:25:26;;;;;;;29.75;14.63;;;;;;;;;;4994414;28;20098;-71
2022/11/04 07:27:52;;;;;;;27.10;14.15;;;;;;;;;;4993699;28;20042;-71
2022/11/04 07:30:19;;;;;;;34.22;14.90;;;;;;;;;;4993602;28;20033;-74
2022/11/04 07:32:45;;;;;;;25.55;14.25;;;;;;;;;;4994293;28;20460;-71
2022/11/04 07:35:11;;;;;;;25.35;14.32;;;;;;;;;;4993999;28;20030;-74
2022/11/04 07:37:37;;;;;;;29.50;13.70;;;;;;;;;;4994001;28;20027;-74
2022/11/04 07:40:04;;;;;;;26.50;13.80;;;;;;;;;;4993872;28;20023;-73
2022/11/04 07:42:29;;;;;;;21.92;14.15;;;;;;;;;;4992626;28;20141;-75
2022/11/04 07:44:55;;;;;;;28.27;14.35;;;;;;;;;;4993735;28;20507;-70
2022/11/04 07:47:21;;;;;;;31.30;14.25;;;;;;;;;;4993658;28;20042;-72
2022/11/04 07:49:46;;;;;;;22.73;12.88;;;;;;;;;;4991947;28;20033;-73
2022/11/04 07:52:12;;;;;;;29.20;15.13;;;;;;;;;;4993273;28;20033;-75
2022/11/04 07:54:38;;;;;;;33.40;14.55;;;;;;;;;;4993658;28;20030;-69
2022/11/04 07:57:03;;;;;;;33.30;14.90;;;;;;;;;;4993553;28;20030;-72
2022/11/04 07:59:29;;;;;;;30.60;15.75;;;;;;;;;;4993457;28;20112;-74
2022/11/04 08:01:54;;;;;;;32.63;17.95;;;;;;;;;;4993464;28;20030;-74
2022/11/04 08:04:20;;;;;;;36.80;19.75;;;;;;;;;;4993484;28;20048;-74
2022/11/04 08:06:45;;;;;;;35.35;17.30;;;;;;;;;;4993464;28;20066;-70
2022/11/04 08:09:10;;;;;;;32.40;17.95;;;;;;;;;;4992566;28;20033;-74
2022/11/04 08:11:36;;;;;;;24.70;13.45;;;;;;;;;;4993527;28;20506;-75
2022/11/04 08:14:03;;;;;;;40.95;16.17;;;;;;;;;;4993060;28;20038;-71
2022/11/04 08:16:28;;;;;;;24.50;15.55;;;;;;;;;;4993013;28;20109;-73
2022/11/04 08:19:00;;;;;;;29.25;14.52;;;;;;;;;;4993225;28;20134;-74
2022/11/04 08:21:27;;;;;;;26.83;14.25;;;;;;;;;;4993358;28;20108;-74
2022/11/04 08:23:52;;;;;;;27.52;13.90;;;;;;;;;;4992964;28;20478;-77
2022/11/04 08:26:19;;;;;;;34.33;15.40;;;;;;;;;;4993163;28;20105;-71
2022/11/04 08:28:45;;;;;;;25.55;14.05;;;;;;;;;;4992474;28;20253;-71
2022/11/04 08:31:23;;;;;;;29.33;13.88;;;;;;;;;;4992991;28;20125;-71
2022/11/04 08:33:48;;;;;;;26.02;13.15;;;;;;;;;;4992979;28;20027;-73
2022/11/04 08:36:17;;;;;;;24.05;13.43;;;;;;;;;;4992927;28;20025;-75
2022/11/04 08:38:43;;;;;;;25.73;13.07;;;;;;;;;;4992750;28;20030;-73
2022/11/04 08:41:10;;;;;;;21.33;13.45;;;;;;;;;;4992896;28;20018;-74
2022/11/04 08:43:35;;;;;;;24.23;13.60;;;;;;;;;;4992686;28;20033;-72
2022/11/04 08:46:04;;;;;;;27.50;14.40;;;;;;;;;;4992738;28;20026;-75
2022/11/04 08:48:29;;;;;;;26.15;13.93;;;;;;;;;;4992613;28;20018;-74
2022/11/04 08:50:57;;;;;;;27.08;13.90;;;;;;;;;;4992742;28;20034;-76
2022/11/04 08:53:23;;;;;;;24.80;14.07;;;;;;;;;;4992578;28;20026;-75
2022/11/04 08:55:49;;;;;;;27.27;13.57;;;;;;;;;;4992556;28;20508;-74
2022/11/04 08:58:15;;;;;;;23.33;14.18;;;;;;;;;;4992251;28;20027;-73
2022/11/04 09:00:40;;;;;;;27.17;13.52;;;;;;;;;;4985552;28;20117;-73
2022/11/04 09:03:07;;;;;;;24.30;14.02;;;;;;;;;;4989546;28;20081;-74
2022/11/04 09:05:35;;;;;;;29.17;14.40;;;;;;;;;;4989624;28;20402;-72
2022/11/04 09:08:00;;;;;;;32.80;15.40;;;;;;;;;;4977347;28;20394;-69
2022/11/04 09:10:26;;;;;;;19.70;11.27;;;;;;;;;;4989674;28;20029;-69
2022/11/04 09:12:52;;;;;;;21.73;13.45;;;;;;;;;;4988557;28;20049;-68
2022/11/04 09:15:18;;;;;;;26.77;13.18;;;;;;;;;;4987589;28;20439;-71
2022/11/04 09:17:43;;;;;;;25.05;14.15;;;;;;;;;;4989621;28;20027;-74
2022/11/04 09:20:11;;;;;;;30.33;14.55;;;;;;;;;;4989427;28;20368;-71
2022/11/04 09:22:36;;;;;;;28.10;13.50;;;;;;;;;;4989383;28;20400;-73
2022/11/04 09:25:02;;;;;;;28.50;13.10;;;;;;;;;;4990087;28;20019;-71
2022/11/04 09:27:28;;;;;;;25.15;12.65;;;;;;;;;;4988907;28;20028;-68
2022/11/04 09:29:53;;;;;;;23.40;13.68;;;;;;;;;;4988138;28;20556;-74
2022/11/04 09:32:19;;;;;;;23.23;12.38;;;;;;;;;;4990792;28;20026;-75
2022/11/04 09:34:44;;;;;;;24.88;13.98;;;;;;;;;;4989677;28;20488;-74
2022/11/04 09:37:10;;;;;;;27.65;13.45;;;;;;;;;;4990093;28;20035;-74
2022/11/04 09:39:35;;;;;;;34.17;14.05;;;;;;;;;;4990215;28;20081;-74
2022/11/04 09:42:12;;;;;;;23.85;13.52;;;;;;;;;;4988786;28;20026;-74
2022/11/04 09:44:38;;;;;;;24.65;13.82;;;;;;;;;;4990223;28;20438;-74
2022/11/04 09:47:04;;;;;;;27.27;14.10;;;;;;;;;;4989131;28;20033;-76
2022/11/04 09:49:34;;;;;;;23.50;12.93;;;;;;;;;;4989197;28;20479;-74
2022/11/04 09:52:05;;;;;;;25.50;12.93;;;;;;;;;;4987950;28;20065;-74
2022/11/04 09:54:42;;;;;;;26.10;13.68;;;;;;;;;;4989455;28;20034;-74
2022/11/04 09:57:14;;;;;;;21.92;13.13;;;;;;;;;;4988808;28;20026;-75
2022/11/04 09:59:40;;;;;;;29.02;14.25;;;;;;;;;;4988744;28;20041;-69
2022/11/04 10:02:28;;;;;;;31.13;13.35;;;;;;;;;;4989567;28;20110;-75
2022/11/04 10:05:05;;;;;;;24.65;13.38;;;;;;;;;;4989058;28;20110;-74
2022/11/04 10:07:58;;;;;;;25.05;13.20;;;;;;;;;;4988318;28;20037;-73
2022/11/04 10:10:36;;;;;;;22.85;13.13;;;;;;;;;;4989227;28;20030;-75
2022/11/04 10:13:23;;;;;;;29.05;13.35;;;;;;;;;;4989290;28;20446;-75
2022/11/04 10:15:58;;;;;;;24.20;13.38;;;;;;;;;;4988891;28;20081;-75
2022/11/04 10:18:33;;;;;;;18.58;12.13;;;;;;;;;;4989066;28;20031;-75
2022/11/04 10:21:10;;;;;;;21.98;13.48;;;;;;;;;;4988527;28;20093;-73
2022/11/04 10:23:37;;;;;;;29.50;14.15;;;;;;;;;;4989260;28;20039;-67
2022/11/04 10:26:30;;;;;;;24.85;13.35;;;;;;;;;;4988117;28;20023;-75
2022/11/04 10:29:01;;;;;;;32.30;17.00;;;;;;;;;;4988154;28;20129;-74
2022/11/04 10:31:27;;;;;;;24.67;12.65;;;;;;;;;;4988661;28;20554;-72
2022/11/04 10:34:08;;;;;;;26.55;12.73;;;;;;;;;;4991677;28;20069;-75
2022/11/04 10:36:36;;;;;;;24.30;13.45;;;;;;;;;;4992402;28;20030;-74
2022/11/04 10:39:12;;;;;;;25.25;13.00;;;;;;;;;;4992760;28;20152;-73
2022/11/04 10:41:39;;;;;;;22.40;13.27;;;;;;;;;;4990763;28;20035;-75
2022/11/04 10:44:15;;;;;;;22.90;13.48;;;;;;;;;;4993519;28;20030;-74
2022/11/04 10:46:59;;;;;;;22.33;12.52;;;;;;;;;;4993507;28;20108;-73
2022/11/04 10:49:49;;;;;;;20.30;12.32;;;;;;;;;;4998063;28;20030;-76
2022/11/04 10:52:15;;;;;;;29.30;13.63;;;;;;;;;;4994972;28;20038;-75
2022/11/04 10:54:46;;;;;;;22.80;12.63;;;;;;;;;;4995787;28;20030;-75
2022/11/04 10:57:16;;;;;;;23.75;12.90;;;;;;;;;;4995752;28;20029;-71
2022/11/04 10:59:58;;;;;;;22.10;12.43;;;;;;;;;;4995855;28;20084;-71
2022/11/04 11:02:36;;;;;;;25.73;12.95;;;;;;;;;;4995589;28;20036;-71
2022/11/04 11:05:24;;;;;;;26.50;12.13;;;;;;;;;;4995592;28;20383;-70
2022/11/04 11:07:55;;;;;;;27.73;12.95;;;;;;;;;;4995464;28;20391;-75
2022/11/04 11:10:33;;;;;;;23.98;13.18;;;;;;;;;;4995499;28;20045;-75
2022/11/04 11:13:06;;;;;;;21.67;12.95;;;;;;;;;;4995564;28;20080;-71
2022/11/04 11:15:35;;;;;;;25.88;13.00;;;;;;;;;;4995736;28;20029;-76
2022/11/04 11:18:07;;;;;;;23.65;12.88;;;;;;;;;;4995476;28;20052;-74
2022/11/04 11:20:36;;;;;;;24.08;13.35;;;;;;;;;;4995452;28;20466;-76
2022/11/04 11:23:08;;;;;;;23.40;13.00;;;;;;;;;;4995211;28;20035;-75
2022/11/04 11:25:35;;;;;;;23.50;12.98;;;;;;;;;;4995477;28;20022;-75
2022/11/04 11:28:07;;;;;;;34.45;21.85;;;;;;;;;;4994983;28;20050;-72
2022/11/04 11:30:45;;;;;;;26.98;14.27;;;;;;;;;;4995007;28;20495;-76
2022/11/04 11:33:18;;;;;;;19.88;12.30;;;;;;;;;;4994850;28;20042;-76
2022/11/04 11:35:54;;;;;;;23.48;13.63;;;;;;;;;;4995239;28;20503;-76
2022/11/04 11:38:23;;;;;;;32.03;17.15;;;;;;;;;;4994603;28;20049;-73
2022/11/04 11:40:54;;;;;;;22.40;13.50;;;;;;;;;;4995058;28;20030;-75
2022/11/04 11:43:29;;;;;;;26.25;13.32;;;;;;;;;;4992840;28;20031;-72
2022/11/04 11:45:56;;;;;;;20.02;12.30;;;;;;;;;;4994976;28;20030;-74
2022/11/04 11:48:32;;;;;;;22.92;12.00;;;;;;;;;;4994519;28;20035;-75
2022/11/04 11:50:59;;;;;;;21.17;12.00;;;;;;;;;;4994514;28;20034;-75
2022/11/04 11:53:28;;;;;;;23.05;12.00;;;;;;;;;;4994946;28;20030;-76
2022/11/04 11:56:21;;;;;;;21.33;11.82;;;;;;;;;;4994631;28;20519;-73
2022/11/04 11:58:54;;;;;;;20.23;11.25;;;;;;;;;;4994919;28;20463;-73
2022/11/04 12:01:37;;;;;;;21.45;12.40;;;;;;;;;;4994538;28;20038;-67
2022/11/04 12:04:03;;;;;;;20.63;12.60;;;;;;;;;;4994507;28;20031;-70
2022/11/04 12:07:00;;;;;;;28.13;12.57;;;;;;;;;;4994165;28;20034;-72
2022/11/04 12:09:47;;;;;;;22.27;11.77;;;;;;;;;;4994294;28;20479;-75
2022/11/04 12:12:24;;;;;;;21.10;11.32;;;;;;;;;;4994382;28;20084;-68
2022/11/04 12:15:08;;;;;;;18.65;11.77;;;;;;;;;;4994446;28;20050;-68
2022/11/04 12:17:59;;;;;;;18.73;10.93;;;;;;;;;;4994471;28;20057;-70
2022/11/04 12:20:48;;;;;;;17.52;9.35;;;;;;;;;;4993992;28;20040;-70
2022/11/04 12:23:17;;;;;;;20.08;10.35;;;;;;;;;;4991016;28;20053;-71
2022/11/04 12:26:09;;;;;;;14.95;9.55;;;;;;;;;;4994258;28;20023;-72
2022/11/04 12:28:50;;;;;;;28.73;17.42;;;;;;;;;;4972263;28;20129;-73
2022/11/04 12:31:30;;;;;;;20.95;12.75;;;;;;;;;;4970346;28;20552;-73
2022/11/04 12:34:44;;;;;;;85.30;40.13;;;;;;;;;;4972405;28;20039;-72
2022/11/04 12:37:40;;;;;;;44.22;25.42;;;;;;;;;;4972280;28;20038;-72
2022/11/04 12:40:24;;;;;;;53.83;22.98;;;;;;;;;;4972216;28;20035;-73
2022/11/04 12:43:14;;;;;;;265.42;112.70;;;;;;;;;;4974624;28;20126;-72
2022/11/04 12:45:55;;;;;;;44.35;25.92;;;;;;;;;;4967169;28;20127;-72
2022/11/04 12:48:51;;;;;;;20.65;10.30;;;;;;;;;;4967820;28;20056;-73
2022/11/04 12:51:24;;;;;;;18.38;10.25;;;;;;;;;;4971819;28;20197;-73
2022/11/04 12:54:13;;;;;;;16.17;9.80;;;;;;;;;;4972440;28;20145;-74
2022/11/04 12:56:40;;;;;;;26.83;11.43;;;;;;;;;;4972099;28;20139;-73
2022/11/04 12:59:28;;;;;;;26.98;18.08;;;;;;;;;;4975357;28;20045;-72
2022/11/04 13:01:58;;;;;;;23.40;15.95;;;;;;;;;;4976377;28;20117;-72
2022/11/04 13:04:37;;;;;;;22.85;14.50;;;;;;;;;;4990784;28;20158;-73
2022/11/04 13:07:09;;;;;;;22.67;12.03;;;;;;;;;;4993593;28;20487;-72
2022/11/04 13:09:57;;;;;;;17.95;10.18;;;;;;;;;;4993467;28;20110;-72
2022/11/04 13:12:28;;;;;;;25.60;12.38;;;;;;;;;;4993168;28;20037;-73
2022/11/04 13:14:59;;;;;;;22.98;12.52;;;;;;;;;;4993360;28;20383;-73
2022/11/04 13:17:45;;;;;;;18.13;11.50;;;;;;;;;;4993133;28;20472;-72
2022/11/04 13:20:12;;;;;;;23.55;13.35;;;;;;;;;;4992900;28;20040;-73
2022/11/04 13:22:42;;;;;;;26.58;10.95;;;;;;;;;;4992541;28;20061;-71
2022/11/04 13:25:16;;;;;;;28.85;15.40;;;;;;;;;;4992987;28;20035;-72
2022/11/04 13:27:49;;;;;;;22.80;12.07;;;;;;;;;;4993034;28;20423;-71
2022/11/04 13:30:36;;;;;;;20.73;11.80;;;;;;;;;;4992847;28;20026;-73
2022/11/04 13:33:46;;;;;;;21.95;12.07;;;;;;;;;;4992872;28;20471;-73
2022/11/04 13:36:36;;;;;;;21.75;13.20;;;;;;;;;;4991927;28;20169;-72
2022/11/04 13:39:22;;;;;;;22.90;12.35;;;;;;;;;;4993083;28;20030;-73
2022/11/04 13:42:19;;;;;;;20.63;11.43;;;;;;;;;;4993173;28;20030;-71
2022/11/04 13:44:47;;;;;;;25.67;13.00;;;;;;;;;;4993188;28;20133;-71
2022/11/04 13:47:42;;;;;;;24.92;13.68;;;;;;;;;;4992870;28;20069;-68
2022/11/04 13:50:29;;;;;;;21.75;12.40;;;;;;;;;;4992903;28;20097;-69
2022/11/04 13:52:54;;;;;;;25.67;12.70;;;;;;;;;;4992950;28;20398;-70
2022/11/04 13:55:20;;;;;;;19.80;11.82;;;;;;;;;;4992967;28;20109;-70
2022/11/04 13:57:57;;;;;;;23.80;12.77;;;;;;;;;;4992778;28;20057;-71
2022/11/04 14:00:25;;;;;;;26.67;14.35;;;;;;;;;;4992708;28;20057;-73
2022/11/04 14:02:56;;;;;;;32.67;14.05;;;;;;;;;;4992738;28;20050;-72
2022/11/04 14:05:35;;;;;;;19.27;12.70;;;;;;;;;;4992839;28;20475;-72
2022/11/04 14:08:01;;;;;;;23.40;13.77;;;;;;;;;;4995641;28;20105;-72
2022/11/04 14:10:41;;;;;;;22.15;12.88;;;;;;;;;;4996465;28;20117;-73
2022/11/04 14:13:25;;;;;;;29.63;15.48;;;;;;;;;;4996617;28;20458;-72
2022/11/04 14:16:05;;;;;;;32.83;18.60;;;;;;;;;;4996312;28;20113;-71
2022/11/04 14:18:52;;;;;;;27.73;15.65;;;;;;;;;;4996346;28;20160;-72
2022/11/04 14:21:23;;;;;;;27.48;14.15;;;;;;;;;;4996431;28;20122;-72
2022/11/04 14:23:51;;;;;;;20.30;12.15;;;;;;;;;;4996383;28;20022;-72
2022/11/04 14:26:21;;;;;;;19.77;11.85;;;;;;;;;;4996061;28;20415;-73
2022/11/04 14:28:59;;;;;;;23.98;12.20;;;;;;;;;;4995409;28;20121;-72
2022/11/04 14:31:49;;;;;;;23.08;13.75;;;;;;;;;;4996248;28;20042;-73
2022/11/04 14:34:30;;;;;;;25.45;14.95;;;;;;;;;;4986748;28;20033;-71
2022/11/04 14:36:58;;;;;;;25.55;12.85;;;;;;;;;;5005262;28;20125;-71
2022/11/04 14:39:30;;;;;;;27.48;14.63;;;;;;;;;;5010848;28;20066;-72
2022/11/04 14:42:03;;;;;;;26.55;14.75;;;;;;;;;;5016194;28;20391;-72
2022/11/04 14:44:30;;;;;;;24.77;13.55;;;;;;;;;;5015212;28;20034;-71
2022/11/04 14:47:17;;;;;;;23.42;13.35;;;;;;;;;;5015382;28;20507;-71
2022/11/04 14:49:47;;;;;;;19.17;12.73;;;;;;;;;;5014223;28;20116;-71
2022/11/04 14:52:26;;;;;;;26.23;14.05;;;;;;;;;;5014161;28;20053;-72
2022/11/04 14:54:57;;;;;;;30.58;15.45;;;;;;;;;;5013810;28;20034;-72
2022/11/04 14:57:23;;;;;;;31.27;16.15;;;;;;;;;;5013836;28;20080;-70
2022/11/04 14:59:51;;;;;;;32.15;16.17;;;;;;;;;;5013612;28;20034;-72
2022/11/04 15:02:30;;;;;;;29.80;14.20;;;;;;;;;;5013792;28;20026;-71
2022/11/04 15:04:59;;;;;;;29.13;13.32;;;;;;;;;;5014043;28;20034;-72
2022/11/04 15:07:31;;;;;;;28.60;14.35;;;;;;;;;;5014881;28;20109;-71
2022/11/04 15:09:57;;;;;;;26.30;14.13;;;;;;;;;;5015102;28;20032;-71
2022/11/04 15:15:30;;;;;;;26.92;15.02;;;;;;;;;;5015229;28;20056;-70
2022/11/04 15:18:04;;;;;;;23.60;14.27;;;;;;;;;;5015698;28;20080;-71
2022/11/04 15:20:31;;;;;;;25.77;15.23;;;;;;;;;;5009270;28;20110;-71
2022/11/04 15:23:00;;;;;;;26.52;15.73;;;;;;;;;;5014797;28;20383;-71
2022/11/04 15:25:27;;;;;;;23.88;14.77;;;;;;;;;;5014022;28;20028;-72